createdAt,value
2022-11-14T00:00:34.353Z,102135.59
2022-11-14T00:03:06.374Z,102146.63
2022-11-14T00:05:40.435Z,102146.28
2022-11-14T00:08:21.583Z,102144.06
2022-11-14T00:10:51.224Z,102150.88
2022-11-14T00:13:20.923Z,102147.38
2022-11-14T00:15:50.636Z,102143.03
2022-11-14T00:18:27.089Z,102144.59
2022-11-14T00:20:59.017Z,102148.00
2022-11-14T00:23:28.631Z,102142.56
2022-11-14T00:26:00.991Z,102140.97
2022-11-14T00:28:30.208Z,102140.97
2022-11-14T00:31:01.115Z,102140.72
2022-11-14T00:33:30.194Z,102139.38
2022-11-14T00:35:58.183Z,102129.53
2022-11-14T00:38:27.693Z,102132.69
2022-11-14T00:40:55.603Z,102133.44
2022-11-14T00:43:24.522Z,102126.16
2022-11-14T00:45:52.908Z,102117.84
2022-11-14T00:48:22.382Z,102118.94
2022-11-14T00:50:51.248Z,102118.34
2022-11-14T00:53:19.021Z,102116.66
2022-11-14T00:55:48.360Z,102121.97
2022-11-14T00:58:17.536Z,102121.97
2022-11-14T01:00:46.667Z,102127.91
2022-11-14T01:03:15.492Z,102127.28
2022-11-14T01:05:49.690Z,102130.94
2022-11-14T01:08:19.599Z,102126.81
2022-11-14T01:10:50.126Z,102129.00
2022-11-14T01:13:21.180Z,102126.03
2022-11-14T01:15:55.558Z,102138.63
2022-11-14T01:18:24.026Z,102142.16
2022-11-14T01:20:55.210Z,102144.16
2022-11-14T01:23:24.025Z,102145.41
2022-11-14T01:25:55.141Z,102155.69
2022-11-14T01:28:23.960Z,102159.66
2022-11-14T01:30:51.991Z,102160.06
2022-11-14T01:33:20.084Z,102156.88
2022-11-14T01:35:58.853Z,102163.50
2022-11-14T01:38:27.255Z,102159.50
2022-11-14T01:40:59.054Z,102171.28
2022-11-14T01:43:47.624Z,102170.63
2022-11-14T01:46:33.181Z,102164.09
2022-11-14T01:49:06.764Z,102179.31
2022-11-14T01:51:44.702Z,102171.09
2022-11-14T01:54:23.361Z,102168.94
2022-11-14T01:56:56.922Z,102177.56
2022-11-14T01:59:31.260Z,102182.09
2022-11-14T02:02:23.289Z,102186.44
2022-11-14T02:05:08.060Z,102187.63
2022-11-14T02:07:42.362Z,102188.13
2022-11-14T02:10:20.003Z,102184.75
2022-11-14T02:12:51.189Z,102191.94
2022-11-14T02:15:19.061Z,102190.97
2022-11-14T02:17:49.058Z,102188.34
2022-11-14T02:20:32.682Z,102183.66
2022-11-14T02:23:01.233Z,102184.16
2022-11-14T02:25:30.011Z,102189.59
2022-11-14T02:28:01.423Z,102198.19
2022-11-14T02:30:31.028Z,102199.59
2022-11-14T02:33:15.262Z,102197.25
2022-11-14T02:35:43.960Z,102200.38
2022-11-14T02:38:11.621Z,102202.31
2022-11-14T02:40:45.442Z,102202.41
2022-11-14T02:43:14.290Z,102205.31
2022-11-14T02:45:42.244Z,102204.38
2022-11-14T02:48:11.475Z,102209.28
2022-11-14T02:50:42.936Z,102219.50
2022-11-14T02:53:11.114Z,102217.72
2022-11-14T02:55:41.154Z,102201.50
2022-11-14T02:58:09.014Z,102216.75
2022-11-14T03:01:05.804Z,102204.47
2022-11-14T03:03:31.161Z,102206.72
2022-11-14T03:06:00.556Z,102211.06
2022-11-14T03:08:29.652Z,102215.00
2022-11-14T03:11:05.852Z,102219.50
2022-11-14T03:13:35.810Z,102219.09
2022-11-14T03:16:20.312Z,102217.25
2022-11-14T03:18:49.395Z,102213.66
2022-11-14T03:21:22.843Z,102212.06
2022-11-14T03:23:52.615Z,102219.06
2022-11-14T03:26:21.080Z,102215.88
2022-11-14T03:28:48.974Z,102212.28
2022-11-14T03:31:20.157Z,102212.28
2022-11-14T03:33:47.925Z,102213.41
2022-11-14T03:36:16.871Z,102214.16
2022-11-14T03:38:45.198Z,102209.25
2022-11-14T03:41:14.144Z,102201.03
2022-11-14T03:43:42.104Z,102209.50
2022-11-14T03:46:11.330Z,102206.09
2022-11-14T03:48:41.630Z,102214.94
2022-11-14T03:51:10.057Z,102213.13
2022-11-14T03:53:39.266Z,102218.09
2022-11-14T03:56:08.353Z,102230.63
2022-11-14T03:58:41.060Z,102221.97
2022-11-14T04:01:14.035Z,102229.22
2022-11-14T04:03:42.959Z,102227.41
2022-11-14T04:06:12.012Z,102234.22
2022-11-14T04:08:41.755Z,102230.84
2022-11-14T04:11:10.883Z,102231.34
2022-11-14T04:13:39.686Z,102239.34
2022-11-14T04:16:08.716Z,102242.34
2022-11-14T04:18:42.395Z,102240.84
2022-11-14T04:21:09.983Z,102243.41
2022-11-14T04:23:38.212Z,102242.47
2022-11-14T04:26:07.277Z,102240.88
2022-11-14T04:28:36.179Z,102239.91
2022-11-14T04:31:05.096Z,102250.88
2022-11-14T04:33:33.035Z,102245.00
2022-11-14T04:36:04.853Z,102251.28
2022-11-14T04:38:33.433Z,102250.13
2022-11-14T04:41:04.608Z,102254.38
2022-11-14T04:43:33.925Z,102254.94
2022-11-14T04:46:02.815Z,102258.47
2022-11-14T04:48:31.442Z,102256.97
2022-11-14T04:51:00.665Z,102266.13
2022-11-14T04:53:29.024Z,102274.13
2022-11-14T04:55:58.218Z,102277.34
2022-11-14T04:58:27.717Z,102275.53
2022-11-14T05:00:58.631Z,102286.28
2022-11-14T05:03:32.238Z,102284.38
2022-11-14T05:06:06.089Z,102292.06
2022-11-14T05:08:35.126Z,102296.09
2022-11-14T05:11:04.708Z,102301.44
2022-11-14T05:13:33.162Z,102296.53
2022-11-14T05:16:13.048Z,102299.22
2022-11-14T05:18:46.995Z,102303.13
2022-11-14T05:21:20.152Z,102303.91
2022-11-14T05:23:52.095Z,102301.63
2022-11-14T05:26:23.466Z,102308.69
2022-11-14T05:28:53.261Z,102305.53
2022-11-14T05:31:20.930Z,102311.06
2022-11-14T05:33:48.904Z,102309.16
2022-11-14T05:36:17.692Z,102316.38
2022-11-14T05:38:46.936Z,102312.34
2022-11-14T05:41:20.375Z,102319.13
2022-11-14T05:43:50.138Z,102325.00
2022-11-14T05:46:21.574Z,102318.50
2022-11-14T05:48:51.340Z,102323.38
2022-11-14T05:51:20.223Z,102326.91
2022-11-14T05:53:52.642Z,102341.28
2022-11-14T05:56:37.984Z,102331.41
2022-11-14T05:59:16.186Z,102341.88
2022-11-14T06:01:45.613Z,102342.03
2022-11-14T06:04:21.270Z,102342.66
2022-11-14T06:06:50.596Z,102342.81
2022-11-14T06:09:19.109Z,102344.03
2022-11-14T06:11:48.437Z,102338.28
2022-11-14T06:14:23.524Z,102336.81
2022-11-14T06:16:52.259Z,102334.34
2022-11-14T06:19:22.590Z,102332.53
2022-11-14T06:21:52.135Z,102346.47
2022-11-14T06:24:24.209Z,102342.56
2022-11-14T06:26:53.383Z,102351.59
2022-11-14T06:29:23.950Z,102332.59
2022-11-14T06:31:52.412Z,102340.03
2022-11-14T06:34:22.158Z,102348.41
2022-11-14T06:36:52.823Z,102342.34
2022-11-14T06:39:23.020Z,102346.06
2022-11-14T06:41:51.085Z,102347.59
2022-11-14T06:44:20.575Z,102347.13
2022-11-14T06:46:54.474Z,102350.00
2022-11-14T06:49:28.306Z,102349.50
2022-11-14T06:54:43.284Z,102356.34
2022-11-14T06:57:13.364Z,102364.25
2022-11-14T06:59:49.255Z,102367.84
2022-11-14T07:02:21.923Z,102371.78
2022-11-14T07:04:54.899Z,102370.50
2022-11-14T07:07:24.347Z,102372.72
2022-11-14T07:09:57.789Z,102376.50
2022-11-14T07:12:26.113Z,102387.63
2022-11-14T07:14:58.787Z,102399.09
2022-11-14T07:17:31.516Z,102397.19
2022-11-14T07:20:01.747Z,102389.88
2022-11-14T07:22:33.154Z,102396.16
2022-11-14T07:25:02.321Z,102392.88
2022-11-14T07:27:31.069Z,102396.16
2022-11-14T07:30:02.023Z,102397.53
2022-11-14T07:32:33.454Z,102394.56
2022-11-14T07:35:03.024Z,102387.69
2022-11-14T07:37:33.839Z,102392.47
2022-11-14T07:40:04.604Z,102391.75
2022-11-14T07:42:55.034Z,102387.44
2022-11-14T07:45:40.040Z,102392.19
2022-11-14T07:48:13.489Z,102390.44
2022-11-14T07:50:43.192Z,102393.88
2022-11-14T07:53:13.214Z,102399.31
2022-11-14T07:55:41.293Z,102400.16
2022-11-14T07:58:14.155Z,102393.22
2022-11-14T08:01:00.720Z,102393.69
2022-11-14T08:03:32.732Z,102384.38
2022-11-14T08:06:13.018Z,102393.03
2022-11-14T08:11:49.958Z,102397.75
2022-11-14T08:14:22.172Z,102396.06
2022-11-14T08:16:55.160Z,102400.34
2022-11-14T08:19:31.481Z,102398.78
2022-11-14T08:24:47.196Z,102395.50
2022-11-14T08:32:51.222Z,102390.69
2022-11-14T08:44:12.769Z,102381.06
2022-11-14T08:46:44.916Z,102376.06
2022-11-14T08:49:13.786Z,102370.34
2022-11-14T08:51:45.129Z,102370.22
2022-11-14T08:54:14.251Z,102369.91
2022-11-14T08:56:43.158Z,102365.00
2022-11-14T08:59:11.086Z,102366.22
2022-11-14T09:01:41.987Z,102357.97
2022-11-14T09:04:10.025Z,102364.84
2022-11-14T09:06:41.709Z,102355.31
2022-11-14T09:09:10.621Z,102345.25
2022-11-14T09:11:41.772Z,102347.47
2022-11-14T09:14:15.439Z,102339.28
2022-11-14T09:16:48.459Z,102340.97
2022-11-14T09:19:17.657Z,102343.44
2022-11-14T09:21:46.993Z,102331.66
2022-11-14T09:24:15.698Z,102333.00
2022-11-14T09:26:43.883Z,102328.28
2022-11-14T09:29:12.489Z,102328.00
2022-11-14T09:31:41.048Z,102339.94
2022-11-14T09:34:09.695Z,102333.31
2022-11-14T09:36:40.672Z,102319.25
2022-11-14T09:39:09.373Z,102324.00
2022-11-14T09:42:03.205Z,102320.34
2022-11-14T09:45:05.029Z,102334.03
2022-11-14T09:47:47.041Z,102317.41
2022-11-14T09:50:38.085Z,102315.03
2022-11-14T09:56:27.392Z,102312.41
2022-11-14T09:59:01.084Z,102315.34
2022-11-14T10:01:51.220Z,102305.22
2022-11-14T10:05:04.109Z,102294.06
2022-11-14T10:08:01.507Z,102293.97
2022-11-14T10:11:06.739Z,102292.06
2022-11-14T10:14:13.412Z,102302.22
2022-11-14T10:17:20.624Z,102292.88
2022-11-14T10:20:15.175Z,102282.97
2022-11-14T10:26:36.852Z,102288.31
2022-11-14T10:29:53.089Z,102295.09
2022-11-14T13:47:09.700Z,102237.25
2022-11-14T13:50:19.104Z,102231.03
2022-11-14T13:56:24.736Z,102236.97
2022-11-14T13:59:19.160Z,102240.63
2022-11-14T14:02:19.823Z,102231.91
2022-11-14T15:03:56.787Z,102255.59
2022-11-14T15:10:07.625Z,102262.16
2022-11-14T15:12:55.807Z,102261.03
2022-11-14T15:15:42.938Z,102262.63
2022-11-14T15:22:00.528Z,102271.81
2022-11-14T15:31:07.391Z,102282.22
2022-11-14T15:33:36.127Z,102269.59
2022-11-14T16:14:46.270Z,102282.53
2022-11-14T17:24:26.040Z,102284.41
2022-11-14T17:30:23.633Z,102287.69
2022-11-14T17:35:52.327Z,102287.91
2022-11-14T17:41:20.536Z,102293.78
2022-11-14T17:44:02.514Z,102287.81
2022-11-14T17:49:13.916Z,102283.41
2022-11-14T17:51:46.255Z,102293.66
2022-11-14T17:54:20.141Z,102293.16
2022-11-14T18:00:11.178Z,102296.28
2022-11-14T18:20:28.919Z,102308.91
2022-11-14T18:31:55.947Z,102313.75
2022-11-14T18:40:34.767Z,102306.63
2022-11-14T18:43:18.834Z,102307.69
2022-11-14T18:45:56.460Z,102320.06
2022-11-14T18:48:49.210Z,102307.16
2022-11-14T18:51:25.093Z,102317.41
2022-11-14T18:57:03.189Z,102312.69
2022-11-14T18:59:39.150Z,102314.94
2022-11-14T19:14:48.944Z,102315.81
2022-11-14T19:23:37.792Z,102331.84
2022-11-14T19:32:13.232Z,102333.78
2022-11-14T19:34:51.693Z,102329.53
2022-11-14T20:05:44.936Z,102321.28
2022-11-14T20:24:21.660Z,102337.06
2022-11-14T20:32:54.353Z,102326.31
2022-11-14T21:13:40.452Z,102316.06
2022-11-14T22:05:47.910Z,102305.44
2022-11-14T22:08:25.149Z,102308.28
2022-11-14T22:11:02.439Z,102307.63
2022-11-14T22:13:34.599Z,102300.22
2022-11-14T22:16:18.776Z,102290.09
2022-11-14T22:18:53.805Z,102295.59
2022-11-14T22:21:23.184Z,102295.91
2022-11-14T22:23:56.875Z,102294.56
2022-11-14T22:26:29.248Z,102296.03
2022-11-14T22:29:01.030Z,102301.75
2022-11-14T22:31:31.432Z,102301.88
2022-11-14T22:34:02.103Z,102302.78
2022-11-14T22:36:33.883Z,102303.50
2022-11-14T22:39:03.157Z,102300.25
2022-11-14T22:41:42.130Z,102299.94
2022-11-14T22:44:13.277Z,102296.34
2022-11-14T22:46:44.763Z,102286.75
2022-11-14T22:49:22.017Z,102288.16
2022-11-14T22:51:54.883Z,102292.00
2022-11-14T22:54:25.188Z,102283.78
2022-11-14T22:56:54.002Z,102281.31
2022-11-14T22:59:23.824Z,102279.09
2022-11-14T23:01:52.689Z,102282.34
2022-11-14T23:04:22.416Z,102284.19
2022-11-14T23:06:55.651Z,102288.63
2022-11-14T23:09:25.664Z,102284.84
2022-11-14T23:12:03.700Z,102283.69
2022-11-14T23:14:42.463Z,102278.50
2022-11-14T23:17:18.005Z,102278.69
2022-11-14T23:19:47.316Z,102279.63
2022-11-14T23:22:17.979Z,102275.38
2022-11-14T23:24:47.664Z,102268.94
2022-11-14T23:27:18.203Z,102268.06
2022-11-14T23:29:48.165Z,102265.88
2022-11-14T23:32:19.264Z,102272.22
2022-11-14T23:34:47.570Z,102277.56
2022-11-14T23:37:17.398Z,102274.53
2022-11-14T23:39:48.016Z,102266.47
2022-11-14T23:42:25.367Z,102269.41
2022-11-14T23:44:55.479Z,102269.88
2022-11-14T23:47:27.343Z,102255.53
2022-11-14T23:50:00.807Z,102264.16
2022-11-14T23:52:39.492Z,102259.13
2022-11-14T23:55:12.126Z,102258.19
2022-11-14T23:57:52.610Z,102258.50
